createdAt,value
2022-09-24T00:01:07.222Z,8.93
2022-09-24T00:03:33.647Z,8.96
2022-09-24T00:06:02.261Z,8.99
2022-09-24T00:08:29.663Z,9.03
2022-09-24T00:10:58.899Z,9.03
2022-09-24T00:13:25.736Z,9.02
2022-09-24T00:15:52.611Z,9.00
2022-09-24T00:18:19.329Z,9.03
2022-09-24T00:20:45.832Z,9.04
2022-09-24T00:23:12.550Z,9.05
2022-09-24T00:26:04.113Z,9.04
2022-09-24T00:28:31.175Z,9.04
2022-09-24T00:30:59.166Z,9.03
2022-09-24T00:33:26.541Z,9.01
2022-09-24T00:35:52.994Z,8.98
2022-09-24T00:38:19.594Z,8.95
2022-09-24T00:40:46.686Z,8.91
2022-09-24T00:43:24.014Z,8.87
2022-09-24T00:45:52.024Z,8.84
2022-09-24T00:48:18.481Z,8.83
2022-09-24T00:50:44.952Z,8.81
2022-09-24T00:53:16.489Z,8.79
2022-09-24T00:55:44.208Z,8.80
2022-09-24T00:58:11.150Z,8.79
2022-09-24T01:00:39.357Z,8.77
2022-09-24T01:03:08.009Z,8.76
2022-09-24T01:05:35.570Z,8.80
2022-09-24T01:08:02.114Z,8.78
2022-09-24T01:10:51.118Z,8.76
2022-09-24T01:13:29.134Z,8.73
2022-09-24T01:16:00.613Z,8.70
2022-09-24T01:18:40.836Z,8.69
2022-09-24T01:21:20.018Z,8.63
2022-09-24T01:24:10.902Z,8.61
2022-09-24T01:26:44.597Z,8.58
2022-09-24T01:29:28.375Z,8.59
2022-09-24T01:32:05.287Z,8.60
2022-09-24T01:34:38.916Z,8.62
2022-09-24T01:37:05.919Z,8.63
2022-09-24T01:39:33.317Z,8.65
2022-09-24T01:42:00.206Z,8.68
2022-09-24T01:44:26.754Z,8.64
2022-09-24T01:46:54.105Z,8.61
2022-09-24T01:49:21.000Z,8.58
2022-09-24T01:51:50.932Z,8.54
2022-09-24T01:54:20.924Z,8.49
2022-09-24T01:56:59.513Z,8.43
2022-09-24T01:59:29.062Z,8.40
2022-09-24T02:01:59.842Z,8.37
2022-09-24T02:04:28.267Z,8.35
2022-09-24T02:06:57.567Z,8.33
2022-09-24T02:09:37.773Z,8.33
2022-09-24T02:12:10.817Z,8.32
2022-09-24T02:14:42.881Z,8.29
2022-09-24T02:17:10.188Z,8.26
2022-09-24T02:19:40.373Z,8.24
2022-09-24T02:22:09.481Z,8.23
2022-09-24T02:24:46.660Z,8.23
2022-09-24T02:27:13.251Z,8.21
2022-09-24T02:29:39.750Z,8.17
2022-09-24T02:32:08.462Z,8.15
2022-09-24T02:34:38.413Z,8.12
2022-09-24T02:37:06.179Z,8.08
2022-09-24T02:39:32.621Z,8.04
2022-09-24T02:41:59.763Z,8.01
2022-09-24T02:44:26.494Z,7.98
2022-09-24T02:46:52.952Z,7.92
2022-09-24T02:49:19.415Z,7.91
2022-09-24T02:51:45.890Z,7.87
2022-09-24T02:54:12.343Z,7.84
2022-09-24T02:56:38.838Z,7.78
2022-09-24T02:59:05.399Z,7.74
2022-09-24T03:01:32.469Z,7.73
2022-09-24T03:03:59.111Z,7.69
2022-09-24T03:06:25.862Z,7.69
2022-09-24T03:08:53.792Z,7.64
2022-09-24T03:11:21.778Z,7.58
2022-09-24T03:13:48.469Z,7.51
2022-09-24T03:16:15.459Z,7.46
2022-09-24T03:18:42.064Z,7.46
2022-09-24T03:21:10.342Z,7.48
2022-09-24T03:23:37.418Z,7.49
2022-09-24T03:26:04.361Z,7.48
2022-09-24T03:28:31.168Z,7.44
2022-09-24T03:31:00.679Z,7.42
2022-09-24T03:33:29.389Z,7.40
2022-09-24T03:35:59.940Z,7.37
2022-09-24T03:38:26.606Z,7.33
2022-09-24T03:40:53.258Z,7.32
2022-09-24T03:43:20.008Z,7.33
2022-09-24T03:45:46.538Z,7.32
2022-09-24T03:48:13.144Z,7.29
2022-09-24T03:50:39.636Z,7.28
2022-09-24T03:53:06.285Z,7.24
2022-09-24T03:55:32.830Z,7.23
2022-09-24T03:57:59.416Z,7.21
2022-09-24T04:00:27.250Z,7.18
2022-09-24T04:02:53.796Z,7.17
2022-09-24T04:05:20.862Z,7.14
2022-09-24T04:07:47.388Z,7.13
2022-09-24T04:10:13.845Z,7.13
2022-09-24T04:12:40.324Z,7.12
2022-09-24T04:15:06.963Z,7.11
2022-09-24T04:17:33.397Z,7.10
2022-09-24T04:19:59.999Z,7.14
2022-09-24T04:22:26.416Z,7.12
2022-09-24T04:24:52.894Z,7.12
2022-09-24T04:27:19.399Z,7.10
2022-09-24T04:29:45.900Z,7.10
2022-09-24T04:32:12.320Z,7.09
2022-09-24T04:34:38.797Z,7.10
2022-09-24T04:37:05.895Z,7.11
2022-09-24T04:39:32.432Z,7.12
2022-09-24T04:41:58.907Z,7.11
2022-09-24T04:44:25.369Z,7.13
2022-09-24T04:46:52.081Z,7.15
2022-09-24T04:49:18.570Z,7.17
2022-09-24T04:51:45.104Z,7.22
2022-09-24T04:54:11.619Z,7.28
2022-09-24T04:56:38.039Z,7.32
2022-09-24T04:59:04.681Z,7.40
2022-09-24T05:01:31.426Z,7.47
2022-09-24T05:03:57.923Z,7.56
2022-09-24T05:06:24.431Z,7.63
2022-09-24T05:08:50.835Z,7.76
2022-09-24T05:11:19.449Z,7.90
2022-09-24T05:13:46.387Z,8.08
2022-09-24T05:16:12.957Z,8.21
2022-09-24T05:18:39.777Z,8.29
2022-09-24T05:21:06.864Z,8.38
2022-09-24T05:23:33.310Z,8.50
2022-09-24T05:26:18.414Z,8.66
2022-09-24T05:28:45.156Z,8.86
2022-09-24T05:31:11.962Z,9.01
2022-09-24T05:33:38.572Z,9.20
2022-09-24T05:36:05.112Z,9.37
2022-09-24T05:38:33.134Z,9.52
2022-09-24T05:40:59.938Z,9.68
2022-09-24T05:43:32.851Z,9.83
2022-09-24T05:45:59.323Z,9.97
2022-09-24T05:48:28.908Z,10.17
2022-09-24T05:50:55.593Z,10.40
2022-09-24T05:53:23.189Z,10.61
2022-09-24T05:55:49.646Z,10.81
2022-09-24T05:58:16.214Z,11.02
2022-09-24T06:00:44.597Z,11.20
2022-09-24T06:03:15.113Z,11.35
2022-09-24T06:05:46.529Z,11.58
2022-09-24T06:08:15.295Z,11.82
2022-09-24T06:10:42.498Z,12.00
2022-09-24T06:13:11.552Z,12.22
2022-09-24T06:15:38.517Z,12.50
2022-09-24T06:18:05.541Z,12.76
2022-09-24T06:20:32.251Z,12.97
2022-09-24T06:22:58.948Z,13.22
2022-09-24T06:25:26.301Z,13.51
2022-09-24T06:28:00.953Z,13.74
2022-09-24T06:30:30.792Z,13.97
2022-09-24T06:33:01.889Z,14.00
2022-09-24T06:35:29.213Z,14.22
2022-09-24T06:37:55.684Z,14.61
2022-09-24T06:40:24.518Z,14.80
2022-09-24T06:42:51.589Z,14.97
2022-09-24T06:45:18.187Z,15.20
2022-09-24T06:47:44.671Z,15.47
2022-09-24T06:50:11.215Z,15.75
2022-09-24T06:52:37.686Z,15.92
2022-09-24T06:55:04.350Z,16.14
2022-09-24T06:57:31.052Z,16.27
2022-09-24T06:59:57.536Z,16.14
2022-09-24T07:02:24.174Z,16.41
2022-09-24T07:04:50.743Z,16.68
2022-09-24T07:07:29.795Z,16.93
2022-09-24T07:09:56.861Z,16.97
2022-09-24T07:12:23.759Z,17.37
2022-09-24T07:14:50.241Z,17.61
2022-09-24T07:17:16.831Z,17.61
2022-09-24T07:19:43.317Z,17.50
2022-09-24T07:22:09.804Z,17.70
2022-09-24T07:24:36.290Z,17.86
2022-09-24T07:27:06.135Z,17.92
2022-09-24T07:29:32.736Z,17.95
2022-09-24T07:31:59.767Z,18.08
2022-09-24T07:34:26.202Z,18.11
2022-09-24T07:36:52.782Z,18.44
2022-09-24T07:39:20.245Z,18.62
2022-09-24T07:41:47.235Z,18.49
2022-09-24T07:44:13.721Z,18.62
2022-09-24T07:46:40.154Z,18.98
2022-09-24T07:49:06.663Z,19.29
2022-09-24T07:51:33.398Z,19.31
2022-09-24T07:54:00.028Z,19.61
2022-09-24T07:56:26.524Z,19.78
2022-09-24T07:58:53.346Z,19.84
2022-09-24T08:01:20.051Z,19.84
2022-09-24T08:03:46.785Z,19.89
2022-09-24T08:06:13.728Z,19.53
2022-09-24T08:08:40.289Z,19.69
2022-09-24T08:11:07.772Z,19.41
2022-09-24T08:13:34.653Z,19.75
2022-09-24T08:16:02.060Z,20.10
2022-09-24T08:18:30.987Z,20.50
2022-09-24T08:20:58.041Z,20.68
2022-09-24T08:23:24.530Z,20.77
2022-09-24T08:25:51.394Z,21.05
2022-09-24T08:28:19.776Z,20.91
2022-09-24T08:30:46.742Z,20.92
2022-09-24T08:33:14.048Z,20.93
2022-09-24T08:35:40.598Z,20.46
2022-09-24T08:38:07.565Z,20.29
2022-09-24T08:40:37.113Z,20.38
2022-09-24T08:43:09.455Z,21.00
2022-09-24T08:46:01.480Z,21.35
2022-09-24T08:48:31.725Z,21.77
2022-09-24T08:51:03.573Z,21.79
2022-09-24T08:53:59.237Z,20.60
2022-09-24T08:56:27.225Z,20.41
2022-09-24T08:59:05.203Z,20.59
2022-09-24T09:01:36.856Z,21.07
2022-09-24T09:04:14.065Z,21.05
2022-09-24T09:06:40.496Z,21.06
2022-09-24T09:09:39.483Z,21.37
2022-09-24T09:12:11.371Z,21.70
2022-09-24T09:14:49.912Z,22.16
2022-09-24T09:17:22.420Z,22.42
2022-09-24T09:19:53.833Z,22.84
2022-09-24T09:22:23.783Z,22.13
2022-09-24T09:24:58.629Z,21.85
2022-09-24T09:27:29.840Z,22.29
2022-09-24T09:29:57.880Z,22.38
2022-09-24T09:32:24.329Z,22.87
2022-09-24T09:35:00.805Z,23.57
2022-09-24T09:37:27.375Z,23.71
2022-09-24T09:40:12.682Z,24.00
2022-09-24T09:42:42.863Z,23.38
2022-09-24T09:45:18.778Z,23.45
2022-09-24T09:47:49.865Z,23.62
2022-09-24T09:50:20.760Z,23.03
2022-09-24T09:52:47.535Z,23.02
2022-09-24T09:55:22.012Z,22.65
2022-09-24T09:57:48.853Z,22.54
2022-09-24T10:00:34.816Z,22.96
2022-09-24T10:03:01.377Z,23.40
2022-09-24T10:05:28.917Z,23.16
2022-09-24T10:07:57.974Z,23.15
2022-09-24T10:10:25.993Z,23.89
2022-09-24T10:12:53.870Z,24.23
2022-09-24T10:15:21.988Z,23.47
2022-09-24T10:17:51.072Z,23.50
2022-09-24T10:20:17.669Z,23.81
2022-09-24T10:22:49.156Z,24.01
2022-09-24T10:25:26.883Z,23.67
2022-09-24T10:28:17.897Z,23.72
2022-09-24T10:30:54.992Z,22.63
2022-09-24T10:33:21.769Z,22.89
2022-09-24T10:35:48.349Z,23.42
2022-09-24T10:38:16.461Z,23.49
2022-09-24T10:40:43.104Z,22.63
2022-09-24T10:43:19.468Z,23.39
2022-09-24T10:45:46.931Z,23.39
2022-09-24T10:48:20.040Z,23.27
2022-09-24T10:50:59.025Z,22.23
2022-09-24T10:53:42.315Z,22.65
2022-09-24T10:56:08.903Z,22.83
2022-09-24T10:58:38.466Z,22.90
2022-09-24T11:01:04.990Z,23.77
2022-09-24T11:03:31.421Z,24.07
2022-09-24T11:06:02.804Z,24.34
2022-09-24T11:09:07.945Z,24.97
2022-09-24T11:11:51.111Z,25.57
2022-09-24T11:14:27.224Z,25.37
2022-09-24T11:16:59.527Z,25.68
2022-09-24T11:19:34.682Z,24.96
2022-09-24T11:22:13.215Z,25.15
2022-09-24T11:24:42.328Z,24.08
2022-09-24T11:27:27.366Z,23.14
2022-09-24T11:30:12.444Z,24.65
2022-09-24T11:32:38.864Z,25.32
2022-09-24T11:35:40.806Z,25.35
2022-09-24T11:38:07.205Z,24.76
2022-09-24T11:40:37.049Z,25.60
2022-09-24T11:43:03.518Z,25.51
2022-09-24T11:45:41.260Z,25.07
2022-09-24T11:48:17.158Z,25.18
2022-09-24T11:51:03.237Z,25.99
2022-09-24T11:53:48.194Z,26.01
2022-09-24T11:56:20.732Z,25.35
2022-09-24T11:58:50.367Z,25.10
2022-09-24T12:01:20.866Z,24.23
2022-09-24T12:03:47.495Z,24.01
2022-09-24T12:06:17.524Z,24.00
2022-09-24T12:08:52.394Z,24.98
2022-09-24T12:11:22.299Z,24.91
2022-09-24T12:14:09.071Z,25.22
2022-09-24T12:16:40.030Z,25.76
2022-09-24T12:19:14.482Z,25.16
2022-09-24T12:21:43.291Z,25.20
2022-09-24T12:24:17.612Z,24.05
2022-09-24T12:26:45.557Z,24.50
2022-09-24T12:29:47.886Z,23.98
2022-09-24T12:32:33.107Z,23.94
2022-09-24T12:35:02.514Z,23.79
2022-09-24T12:37:32.048Z,23.78
2022-09-24T12:40:17.087Z,24.82
2022-09-24T12:42:47.845Z,25.46
2022-09-24T12:45:19.879Z,24.34
2022-09-24T12:47:49.402Z,24.86
2022-09-24T12:50:20.715Z,25.27
2022-09-24T12:52:47.378Z,25.14
2022-09-24T12:55:21.895Z,24.99
2022-09-24T12:57:54.454Z,24.90
2022-09-24T13:00:43.148Z,26.00
2022-09-24T13:03:28.029Z,26.93
2022-09-24T13:05:56.591Z,26.33
2022-09-24T13:08:24.871Z,25.58
2022-09-24T13:10:58.897Z,25.69
2022-09-24T13:13:31.861Z,25.71
2022-09-24T13:16:18.691Z,26.35
2022-09-24T13:18:56.173Z,25.77
2022-09-24T13:21:24.865Z,26.47
2022-09-24T13:23:53.631Z,26.58
2022-09-24T13:26:32.107Z,25.26
2022-09-24T13:29:00.786Z,25.55
2022-09-24T13:31:27.426Z,25.26
2022-09-24T13:33:56.535Z,25.56
2022-09-24T13:36:22.971Z,25.87
2022-09-24T13:39:03.276Z,25.34
2022-09-24T13:41:36.800Z,24.43
2022-09-24T13:44:12.770Z,24.68
2022-09-24T13:46:41.275Z,25.05
2022-09-24T13:49:12.273Z,23.78
2022-09-24T13:51:40.699Z,24.01
2022-09-24T13:54:14.839Z,23.76
2022-09-24T13:56:41.385Z,23.90
2022-09-24T13:59:12.307Z,24.33
2022-09-24T14:01:43.380Z,24.12
2022-09-24T14:04:20.675Z,23.18
2022-09-24T14:06:50.422Z,22.54
2022-09-24T14:09:30.741Z,22.49
2022-09-24T14:11:58.712Z,22.66
2022-09-24T14:14:27.929Z,23.34
2022-09-24T14:16:57.357Z,23.32
2022-09-24T14:19:23.997Z,23.18
2022-09-24T14:21:55.163Z,23.17
2022-09-24T14:24:24.851Z,23.55
2022-09-24T14:26:57.124Z,23.67
2022-09-24T14:29:28.370Z,23.77
2022-09-24T14:31:59.881Z,23.74
2022-09-24T14:34:34.376Z,23.83
2022-09-24T14:37:07.369Z,23.75
2022-09-24T14:39:37.377Z,23.41
2022-09-24T14:42:08.839Z,23.12
2022-09-24T14:44:35.505Z,23.24
2022-09-24T14:47:02.525Z,22.97
2022-09-24T14:49:43.088Z,22.51
2022-09-24T14:52:25.685Z,22.29
2022-09-24T14:55:01.432Z,22.19
2022-09-24T14:57:27.849Z,22.26
2022-09-24T14:59:54.412Z,21.85
2022-09-24T15:02:33.677Z,22.04
2022-09-24T15:05:05.898Z,22.26
2022-09-24T15:07:34.506Z,22.27
2022-09-24T15:10:02.726Z,22.18
2022-09-24T15:12:33.245Z,22.29
2022-09-24T15:15:02.637Z,22.54
2022-09-24T15:17:30.983Z,22.67
2022-09-24T15:19:58.477Z,22.62
2022-09-24T15:22:29.054Z,22.19
2022-09-24T15:25:01.163Z,21.86
2022-09-24T15:27:30.271Z,21.72
2022-09-24T15:29:59.531Z,21.62
2022-09-24T15:32:26.622Z,21.43
2022-09-24T15:34:55.105Z,21.28
2022-09-24T15:37:22.636Z,21.09
2022-09-24T15:39:49.836Z,20.93
2022-09-24T15:42:20.701Z,20.87
2022-09-24T15:44:47.647Z,20.90
2022-09-24T15:47:14.539Z,20.77
2022-09-24T15:49:40.990Z,20.65
2022-09-24T15:54:33.729Z,20.99
2022-09-24T15:57:01.348Z,21.88
2022-09-24T15:59:27.956Z,22.78
2022-09-24T16:01:55.993Z,23.07
2022-09-24T16:04:22.499Z,22.65
2022-09-24T16:06:50.055Z,22.12
2022-09-24T16:09:16.561Z,21.58
2022-09-24T16:11:43.001Z,21.35
2022-09-24T16:14:09.816Z,21.04
2022-09-24T16:16:38.359Z,20.70
2022-09-24T16:19:07.121Z,20.45
2022-09-24T16:21:33.553Z,20.26
2022-09-24T16:24:00.810Z,20.07
2022-09-24T16:26:27.336Z,19.88
2022-09-24T16:28:53.838Z,19.73
2022-09-24T16:31:20.652Z,19.55
2022-09-24T16:33:47.374Z,19.40
2022-09-24T16:36:14.019Z,19.21
2022-09-24T16:38:40.618Z,19.05
2022-09-24T16:41:07.603Z,18.88
2022-09-24T16:43:34.152Z,18.73
2022-09-24T16:46:04.466Z,18.59
2022-09-24T16:48:31.409Z,18.45
2022-09-24T16:51:08.644Z,18.34
2022-09-24T16:53:35.686Z,18.11
2022-09-24T16:56:15.383Z,17.91
2022-09-24T16:58:42.434Z,17.76
2022-09-24T17:01:10.162Z,17.65
2022-09-24T17:03:37.040Z,17.52
2022-09-24T17:06:03.786Z,17.45
2022-09-24T17:08:54.189Z,17.33
2022-09-24T17:11:21.284Z,17.20
2022-09-24T17:13:47.891Z,16.99
2022-09-24T17:16:15.222Z,16.81
2022-09-24T17:18:41.746Z,16.69
2022-09-24T17:21:09.747Z,16.60
2022-09-24T17:23:36.254Z,16.48
2022-09-24T17:26:02.777Z,16.34
2022-09-24T17:28:32.101Z,16.21
2022-09-24T17:30:58.684Z,16.10
2022-09-24T17:33:42.914Z,16.02
2022-09-24T17:36:10.848Z,15.96
2022-09-24T17:38:37.643Z,15.87
2022-09-24T17:41:05.769Z,15.77
2022-09-24T17:43:32.323Z,15.77
2022-09-24T17:46:02.149Z,15.72
2022-09-24T17:48:30.965Z,15.67
2022-09-24T17:50:58.264Z,15.58
2022-09-24T17:53:25.244Z,15.52
2022-09-24T17:55:52.660Z,15.46
2022-09-24T17:58:19.831Z,15.42
2022-09-24T18:00:48.248Z,15.32
2022-09-24T18:03:14.830Z,15.18
2022-09-24T18:05:41.262Z,15.07
2022-09-24T18:08:08.148Z,15.01
2022-09-24T18:10:34.664Z,14.96
2022-09-24T18:13:01.180Z,14.86
2022-09-24T18:15:29.756Z,14.85
2022-09-24T18:17:56.955Z,14.86
2022-09-24T18:20:23.978Z,14.83
2022-09-24T18:22:50.936Z,14.76
2022-09-24T18:25:18.510Z,14.71
2022-09-24T18:27:47.688Z,14.68
2022-09-24T18:30:15.540Z,14.62
2022-09-24T18:32:44.741Z,14.52
2022-09-24T18:35:11.631Z,14.47
2022-09-24T18:37:39.908Z,14.44
2022-09-24T18:40:07.517Z,14.45
2022-09-24T18:42:36.716Z,14.45
2022-09-24T18:45:03.523Z,14.49
2022-09-24T18:47:30.091Z,14.47
2022-09-24T18:49:56.581Z,14.44
2022-09-24T18:52:23.281Z,14.41
2022-09-24T18:54:50.266Z,14.39
2022-09-24T18:57:16.750Z,14.37
2022-09-24T18:59:46.903Z,14.35
2022-09-24T19:02:14.109Z,14.36
2022-09-24T19:04:41.583Z,14.42
2022-09-24T19:07:08.890Z,14.47
2022-09-24T19:09:36.144Z,14.51
2022-09-24T19:12:05.591Z,14.52
2022-09-24T19:14:32.118Z,14.51
2022-09-24T19:16:58.610Z,14.52
2022-09-24T19:19:26.813Z,14.51
2022-09-24T19:21:53.537Z,14.51
2022-09-24T19:24:20.002Z,14.48
2022-09-24T19:26:46.510Z,14.48
2022-09-24T19:29:14.439Z,14.46
2022-09-24T19:31:42.528Z,14.44
2022-09-24T19:34:11.524Z,14.38
2022-09-24T19:36:43.846Z,14.39
2022-09-24T19:39:11.918Z,14.42
2022-09-24T19:41:38.517Z,14.49
2022-09-24T19:44:08.838Z,14.55
2022-09-24T19:46:37.200Z,14.55
2022-09-24T19:49:03.902Z,14.46
2022-09-24T19:51:32.142Z,14.39
2022-09-24T19:54:07.749Z,14.35
2022-09-24T19:56:34.619Z,14.31
2022-09-24T19:59:01.365Z,14.25
2022-09-24T20:01:29.068Z,14.20
2022-09-24T20:03:56.209Z,14.22
2022-09-24T20:06:23.786Z,14.20
2022-09-24T20:08:50.270Z,14.18
2022-09-24T20:11:19.450Z,14.15
2022-09-24T20:13:46.775Z,14.19
2022-09-24T20:16:15.510Z,14.24
2022-09-24T20:18:43.157Z,14.24
2022-09-24T20:21:12.714Z,14.25
2022-09-24T20:23:42.315Z,14.25
2022-09-24T20:26:29.358Z,14.24
2022-09-24T20:28:55.943Z,14.25
2022-09-24T20:31:22.705Z,14.26
2022-09-24T20:33:49.777Z,14.27
2022-09-24T20:36:20.726Z,14.33
2022-09-24T20:38:49.822Z,14.35
2022-09-24T20:41:19.989Z,14.37
2022-09-24T20:43:46.707Z,14.37
2022-09-24T20:46:22.430Z,14.37
2022-09-24T20:48:49.088Z,14.38
2022-09-24T20:51:18.150Z,14.42
2022-09-24T20:53:45.267Z,14.43
2022-09-24T20:56:11.786Z,14.42
2022-09-24T20:58:39.913Z,14.41
2022-09-24T21:01:07.496Z,14.43
2022-09-24T21:03:49.648Z,14.46
2022-09-24T21:06:16.826Z,14.52
2022-09-24T21:08:44.577Z,14.54
2022-09-24T21:11:18.470Z,14.60
2022-09-24T21:13:52.226Z,14.66
2022-09-24T21:16:20.822Z,14.68
2022-09-24T21:18:47.964Z,14.75
2022-09-24T21:21:18.188Z,14.78
2022-09-24T21:23:45.452Z,14.80
2022-09-24T21:26:12.237Z,14.84
2022-09-24T21:28:38.712Z,14.86
2022-09-24T21:31:05.911Z,14.86
2022-09-24T21:33:33.238Z,14.86
2022-09-24T21:36:00.620Z,14.89
2022-09-24T21:38:27.391Z,14.90
2022-09-24T21:40:54.606Z,14.94
2022-09-24T21:43:25.261Z,14.95
2022-09-24T21:45:52.966Z,15.00
2022-09-24T21:48:19.476Z,15.01
2022-09-24T21:50:46.024Z,15.02
2022-09-24T21:53:12.558Z,15.00
2022-09-24T21:55:39.300Z,15.01
2022-09-24T21:58:05.775Z,15.03
2022-09-24T22:00:32.295Z,15.05
2022-09-24T22:02:59.316Z,15.04
2022-09-24T22:05:25.773Z,15.03
2022-09-24T22:07:55.134Z,15.02
2022-09-24T22:10:21.586Z,15.00
2022-09-24T22:12:48.067Z,14.97
2022-09-24T22:15:14.652Z,14.94
2022-09-24T22:17:41.186Z,14.94
2022-09-24T22:20:07.977Z,14.92
2022-09-24T22:22:34.407Z,14.89
2022-09-24T22:25:00.826Z,14.87
2022-09-24T22:27:27.269Z,14.86
2022-09-24T22:29:53.693Z,14.84
2022-09-24T22:32:20.215Z,14.81
2022-09-24T22:35:05.044Z,14.76
2022-09-24T22:37:32.226Z,14.68
2022-09-24T22:39:58.743Z,14.67
2022-09-24T22:42:25.219Z,14.67
2022-09-24T22:44:51.950Z,14.63
2022-09-24T22:47:18.383Z,14.62
2022-09-24T22:49:44.874Z,14.60
2022-09-24T22:52:11.326Z,14.58
2022-09-24T22:54:37.760Z,14.57
2022-09-24T22:57:04.231Z,14.57
2022-09-24T22:59:30.725Z,14.52
2022-09-24T23:01:57.184Z,14.52
2022-09-24T23:04:23.796Z,14.51
2022-09-24T23:06:50.234Z,14.48
2022-09-24T23:09:16.694Z,14.50
2022-09-24T23:11:43.272Z,14.48
2022-09-24T23:14:12.512Z,14.43
2022-09-24T23:16:39.337Z,14.33
2022-09-24T23:19:12.850Z,14.25
2022-09-24T23:21:39.617Z,14.15
2022-09-24T23:24:13.159Z,14.08
2022-09-24T23:26:39.656Z,13.98
2022-09-24T23:29:06.859Z,13.92
2022-09-24T23:31:34.359Z,13.86
2022-09-24T23:34:01.439Z,13.79
2022-09-24T23:36:30.210Z,13.74
2022-09-24T23:38:56.825Z,13.68
2022-09-24T23:41:23.574Z,13.66
2022-09-24T23:43:50.084Z,13.60
2022-09-24T23:46:17.056Z,13.54
2022-09-24T23:48:44.016Z,13.50
2022-09-24T23:51:11.054Z,13.44
2022-09-24T23:53:37.835Z,13.41
2022-09-24T23:56:05.534Z,13.36
2022-09-24T23:58:32.153Z,13.27
